logo
Search for airport 
image banner adimage banner adimage banner ad
image banner ad

UGSB - Batumi

Located in Batumi, Georgia

ICAO - UGSB, IATA - BUS

Data provided by Airmate  

General information

Coordinates: N41°36'37" E41°35'58"
Elevation is 37 feet MSL.
Magnetic variation is 7° East
View others Airports in Adjara

Operational data

Special qualification required
Current time UTC:
Current local time:
Weather
METAR: UGSB 220930Z 34008KT CAVOK 17/13 Q1017 NOSIG
TAF: TAF UGSB 220500Z 2206/2306 33007KT 9999 SCT010 BKN020 TX22/2211Z TN11/2301Z BECMG 2207/2209 CAVOK TEMPO 2221/2305 SCT010 BKN015
View NOTAMs / SUP AIP / TFR affecting this airport [VIEW]
Communications frequencies: [VIEW]

Runways:

RWY identifierQFULength (ft)Width (ft)SurfaceLDA (ft)
12131°8202148CONC+ASPH8202
30311°8202148CONC+ASPH8202
13131°8202148ASP
31311°8202148ASP

Airport contact information

Address: Batumi Georgia

Satellite view of UGSB